Weather at Suvarnabhumi Airport

Public forecast

Using degrees Celsius for public forecast. Weather courtesy of forecast.io.

Current aviation weather report (METAR) for Suvarnabhumi Airport

2022/12/05 13:30 (retrieved 34 minutes ago)

VTBS 051330Z 02009KT 9999 FEW020 29/24 Q1011 NOSIG

Aviation forecast (TAF) for Suvarnabhumi Airport

2022/12/05 12:00 (retrieved 2 hours ago)

TAF VTBD 051100Z 0512/0618 05008KT 9999 FEW030 TAF VTBS 051100Z 0512/0618 05008KT 9999 FEW030